Nearby METAR (Airport) Reports

 

KPRN - Greenville, Alabama, USA
Distance from station: WNW 17mi, 28km
Updated: Sun, 25-Feb-2024 8:58am CST
Clear
Clear
 Wind from varies
Wind: varies 7 mph , 11 km/h
Temperature: 52°F , 11°C
Dew Point: 34°F , 1°C
Humidity: 50%
Barometer: 30.20 inHg , 1022.7 hPa
Clouds: Clear
Visibility: 10 miles , 16 km
2024/02/25 14:58 KPRN 251458Z AUTO VRB06KT 10SM CLR 11/01 A3020 RMK AO2 SLP176 T01060006 53015
KTOI - Troy, Alabama, USA
Distance from station: ENE 21mi, 34km
Updated: Sun, 25-Feb-2024 8:53am CST
Clear
Clear
 Wind from E
Wind: E 6 mph , 9 km/h
Temperature: 55°F , 13°C
Dew Point: 36°F , 2°C
Humidity: 47%
Barometer: 30.22 inHg , 1023.4 hPa
Clouds: Clear
Visibility: 10 miles , 16 km
2024/02/25 14:53 KTOI 251453Z AUTO 10005KT 10SM CLR 13/02 A3022 RMK AO2 SLP232 T01330017 51015
K79J - Andalusia/Opp Ar, Alabama, USA
Distance from station: S 29mi, 47km
Updated: Sun, 25-Feb-2024 8:56am CST
Clear
Clear
 Wind from ESE
Wind: ESE 6 mph , 9 km/h
Temperature: 55°F , 13°C
Dew Point: 34°F , 1°C
Humidity: 44%
Barometer: 30.21 inHg , 1023 hPa
Clouds: Clear
Visibility: 10 miles , 16 km
2024/02/25 14:56 K79J 251456Z AUTO 12005KT 10SM CLR 13/01 A3021 RMK AO2 SLP229 T01280011 51014 TSNO
 
KMGM - Montgomery, Alabama, USA
Distance from station: N 39mi, 63km
Updated: Sun, 25-Feb-2024 8:53am CST
Clear
Clear
 Wind from E
Wind: E 8 mph , 13 km/h
Temperature: 52°F , 11°C
Dew Point: 36°F , 2°C
Humidity: 54%
Barometer: 30.22 inHg , 1023.4 hPa
Clouds: Clear
Visibility: 10 miles , 16 km
2024/02/25 14:53 KMGM 251453Z 10007KT 10SM CLR 11/02 A3022 RMK AO2 SLP234 T01060017 51014
KMXF - Maxwell Afb/Mgm, Alabama, USA
Distance from station: N 44mi, 70km
Updated: Sun, 25-Feb-2024 6:55am CST
NOT Current
Clear
Clear
 Wind from NE
Wind: NE 5 mph , 7 km/h
Temperature: 41°F , 5°C
Wind Chill: 38°F , 3°C
Dew Point: 36°F , 2°C
Humidity: 81%
Barometer: 30.17 inHg , 1021.7 hPa
Clouds: Clear
Visibility: 10 miles , 16 km
2024/02/25 12:55 KMXF 251255Z AUTO 04004KT 10SM CLR 05/02 A3017 RMK AO2 SLP220 T00500015
KLOR - Lowe Ahp/Ft. Ruc, Alabama, USA
Distance from station: SE 44mi, 71km
Updated: Sun, 25-Feb-2024 6:55am CST
NOT Current
Clear
Clear
 Wind from calm
Wind: Calm
Temperature: 34°F , 1°C
Dew Point: 34°F , 1°C
Humidity: 100%
Barometer: 30.19 inHg , 1022.4 hPa
Clouds: Clear
Visibility: 8 miles , 13 km
2024/02/25 12:55 KLOR 251255Z AUTO 00000KT 8SM CLR 01/01 A3019 RMK AO2 SLP208 T00110005
 
KGZH - Evergreen, Alabama, USA
Distance from station: WSW 46mi, 75km
Updated: Sun, 25-Feb-2024 8:53am CST
Clear
Clear
 Wind from ESE
Wind: ESE 7 mph , 11 km/h
Temperature: 55°F , 13°C
Dew Point: 36°F , 2°C
Humidity: 47%
Barometer: 30.21 inHg , 1023 hPa
Clouds: Clear
Visibility: 10 miles , 16 km
2024/02/25 14:53 KGZH 251453Z AUTO 11006KT 10SM CLR 13/02 A3021 RMK AO2 SLP230 T01280017 51015
K0J4 - Florala Muni, Alabama, USA
Distance from station: S 47mi, 76km
Updated: Sun, 25-Feb-2024 8:58am CST
Clear
Clear
 Wind from SE
Wind: SE 5 mph , 7 km/h
Temperature: 57°F , 14°C
Dew Point: 34°F , 1°C
Humidity: 41%
Barometer: 30.24 inHg , 1024 hPa
Clouds: Clear
Visibility: 10 miles , 16 km
2024/02/25 14:58 K0J4 251458Z AUTO 14004KT 10SM CLR 14/01 A3024 RMK AO2 RAE03 SLP238 P0000 60000 T01440006 51015
KOZR - Ozark/Cairns Aaf, Alabama, USA
Distance from station: SE 49mi, 78km
Updated: Sun, 25-Feb-2024 6:55am CST
NOT Current
Clear
Clear
 Wind from calm
Wind: Calm
Temperature: 37°F , 3°C
Dew Point: 32°F , 0°C
Humidity: 81%
Barometer: 30.18 inHg , 1022 hPa
Clouds: Clear
Visibility: 10 miles , 16 km
2024/02/25 12:55 KOZR 251255Z AUTO 00000KT 10SM CLR 03/00 A3018 RMK AO2 SLP223 T00320001 PNO $
 
KHEY - Ft Rucker/Hanche, Alabama, USA
Distance from station: ESE 49mi, 79km
Updated: Sun, 25-Feb-2024 7:30am CST
NOT Current
Clear
Clear
 Wind from calm
Wind: Calm
Temperature: 41°F , 5°C
Dew Point: 36°F , 2°C
Humidity: 81%
Barometer: 30.18 inHg , 1022 hPa
Clouds: Clear
Visibility: 10 miles , 16 km
2024/02/25 13:30 KHEY 251330Z AUTO 00000KT 10SM CLR 05/02 A3018 RMK AO2 SLP223
KDHN - Dothan, Alabama, USA
Distance from station: ESE 61mi, 97km
Updated: Sun, 25-Feb-2024 8:53am CST
Clear
Clear
 Wind from E
Wind: E 8 mph , 13 km/h
Temperature: 54°F , 12°C
Dew Point: 34°F , 1°C
Humidity: 47%
Barometer: 30.26 inHg , 1024.7 hPa
Clouds: Clear
Visibility: 10 miles , 16 km
2024/02/25 14:53 KDHN 251453Z 09007KT 10SM CLR 12/01 A3026 RMK AO2 SLP244 T01220006 51020
KCEW - Crestview, Florida, USA
Distance from station: S 66mi, 107km
Updated: Sun, 25-Feb-2024 8:53am CST
Clear
Clear
 Wind from varies
Wind: varies 5 mph , 7 km/h
Temperature: 55°F , 13°C
Dew Point: 37°F , 3°C
Humidity: 51%
Barometer: 30.23 inHg , 1023.7 hPa
Clouds: Clear
Visibility: 10 miles , 16 km
2024/02/25 14:53 KCEW 251453Z AUTO VRB04KT 10SM CLR 13/03 A3023 RMK AO2 SLP235 T01280028 51015
 
KEUF - Eufaula, Alabama, USA
Distance from station: ENE 73mi, 118km
Updated: Sun, 25-Feb-2024 8:58am CST
Clear
Clear
 Wind from calm
Wind: Calm
Temperature: 52°F , 11°C
Dew Point: 30°F , -1°C
Humidity: 44%
Barometer: 30.24 inHg , 1024 hPa
Clouds: Clear
Visibility: 10 miles , 16 km
2024/02/25 14:58 KEUF 251458Z AUTO 00000KT 10SM CLR 11/M01 A3024 RMK AO2 SLP240 I1000 I3/// T01111006 51018
KJKA - Gulf Shores, Alabama, USA
Distance from station: SSW 132mi, 212km
Updated: Sun, 25-Feb-2024 8:55am CST
Clear
Clear
 Wind from E
Wind: E 5 mph , 7 km/h
Temperature: 59°F , 15°C
Dew Point: 39°F , 4°C
Humidity: 48%
Barometer: 30.21 inHg , 1023 hPa
Clouds: Clear
Visibility: 10 miles , 16 km
2024/02/25 14:55 KJKA 251455Z 08004KT 10SM CLR 15/04 A3021
KLSF - Ft Benning/Colum, Georgia, USA
Distance from station: SNE 89mi, 143km
Updated: Sun, 25-Feb-2024 6:55am CST
NOT Current
Clear
Clear
 Wind from calm
Wind: Calm
Temperature: 34°F , 1°C
Dew Point: 30°F , -1°C
Humidity: 87%
Barometer: 30.19 inHg , 1022.4 hPa
Clouds: Clear
2024/02/25 12:55 KLSF 251255Z AUTO 00000KT M M CLR 01/M01 A3019 RMK AO2 SLP230 T00061009 RVRNO $
 
KMOB - Mobile/Bates, Alabama, USA
Distance from station: SW 125mi, 202km
Updated: Sun, 25-Feb-2024 8:56am CST
Clear
Clear
 Wind from ESE
Wind: ESE 9 mph , 15 km/h
Temperature: 63°F , 17°C
Dew Point: 36°F , 2°C
Humidity: 37%
Barometer: 30.22 inHg , 1023.4 hPa
Clouds: Clear
Visibility: M 10 miles , 16 km
2024/02/25 14:56 KMOB 251456Z 12008KT 10SM CLR 17/02 A3022 RMK AO2 SLP230 T01670017 53014
KNMM - Meridian Nas, Mississippi, USA
Distance from station: WNW 151mi, 243km
Updated: Sun, 25-Feb-2024 8:56am CST
Clear
Clear
 Wind from SSE
Wind: SSE 7 mph , 11 km/h
Temperature: 55°F , 13°C
Dew Point: 36°F , 2°C
Humidity: 47%
Barometer: 30.18 inHg , 1022 hPa
Clouds: Clear
Visibility: 10 miles , 16 km
2024/02/25 14:56 KNMM 251456Z AUTO 16006KT 10SM CLR 13/02 A3018 RMK AO2 SLP231 T01330022 51010 $
KQHY - Hurlbert (Ft Walton Bch), Florida, USA
Distance from station: S 94mi, 151km
Updated: Sun, 25-Feb-2024 8:55am CST
Clear
Clear
 Wind from ENE
Wind: ENE 3 mph , 6 km/h
Temperature: 63°F , 17°C
Dew Point: 39°F , 4°C
Humidity: 42%
Barometer: 30.22 inHg , 1023.4 hPa
Clouds: Clear
Visibility: 10 miles , 16 km
2024/02/25 14:55 KQHY 251455Z AUTO 07003KT 10SM CLR 17/04 A3022 RMK AO2 SLP241 T01720035 52013
 
KTCL - Tuscaloosa, Alabama, USA
Distance from station: NNW 129mi, 207km
Updated: Sun, 25-Feb-2024 8:53am CST
Clear
Clear
 Wind from ESE
Wind: ESE 6 mph , 9 km/h
Temperature: 52°F , 11°C
Dew Point: 34°F , 1°C
Humidity: 50%
Barometer: 30.19 inHg , 1022.4 hPa
Clouds: Clear
Visibility: 10 miles , 16 km
2024/02/25 14:53 KTCL 251453Z 12005KT 10SM CLR 11/01 A3019 RMK AO2 SLP222 T01060011 51010
KECP - Panama City, Florida, USA
Distance from station: SSE 122mi, 196km
Updated: Sun, 25-Feb-2024 8:53am CST
Clear
Clear
 Wind from NE
Wind: NE 8 mph , 13 km/h
Temperature: 61°F , 16°C
Dew Point: 37°F , 3°C
Humidity: 42%
Barometer: 30.21 inHg , 1023 hPa
Clouds: Clear
Visibility: 10 miles , 16 km
2024/02/25 14:53 KECP 251453Z 05007KT 10SM CLR 16/03 A3021 RMK AO1 SLP241 T01560033 51020
KCBM - Columbus Afb, Mississippi, USA
Distance from station: NW 175mi, 282km
Updated: Sun, 25-Feb-2024 6:55am CST
NOT Current
Clear
Clear
 Wind from SE
Wind: SE 3 mph , 6 km/h
Temperature: 34°F , 1°C
Dew Point: 30°F , -1°C
Humidity: 87%
Barometer: 30.11 inHg , 1019.6 hPa
Clouds: Clear
Visibility: 10 miles , 16 km
2024/02/25 12:55 KCBM 251255Z AUTO 13003KT 10SM CLR 01/M01 A3011 RMK AO2 SLP199 T00101006 $
 
KBHM - Birmingham, Alabama, USA
Distance from station: N 132mi, 212km
Updated: Sun, 25-Feb-2024 8:53am CST
Partly cloudy
Partly cloudy
 Wind from ESE
Wind: ESE 8 mph , 13 km/h
Temperature: 48°F , 9°C
Wind Chill: 44°F , 7°C
Dew Point: 27°F , -3°C
Humidity: 43%
Barometer: 30.21 inHg , 1023 hPa
Clouds: Partly cloudy
Visibility: 10 miles , 16 km
Cloud details: Few Clouds 12000 ft
Partly cloudy 15000 ft
2024/02/25 14:53 KBHM 251453Z 11007KT 10SM FEW120 SCT150 09/M03 A3021 RMK AO2 SLP229 T00891028 53010
KAAF - Apalachicola, Florida, USA
Distance from station: SSE 156mi, 250km
Updated: Sun, 25-Feb-2024 8:53am CST
Clear
Clear
 Wind from ENE
Wind: ENE 8 mph , 13 km/h
Temperature: 61°F , 16°C
Dew Point: 41°F , 5°C
Humidity: 48%
Barometer: 30.21 inHg , 1023 hPa
Clouds: Clear
Visibility: 10 miles , 16 km
2024/02/25 14:53 KAAF 251453Z AUTO 07007KT 10SM CLR 16/05 A3021 RMK AO2 SLP228 T01610050 53016 $
KATL - Atlanta, Georgia, USA
Distance from station: NE 177mi, 287km
Updated: Sun, 25-Feb-2024 8:52am CST
Few Clouds
Few Clouds
 Wind from N
Wind: N 5 mph , 7 km/h
Temperature: 46°F , 8°C
Wind Chill: 44°F , 7°C
Dew Point: 27°F , -3°C
Humidity: 46%
Barometer: 30.19 inHg , 1022.4 hPa
Clouds: Few Clouds
Visibility: 10 miles , 16 km
Cloud details: Few Clouds 22000 ft
2024/02/25 14:52 KATL 251452Z 36004KT 10SM FEW220 08/M03 A3019 RMK AO2 SLP227 T00831033 51016 $
 
KGPT - Gulfport, Mississippi, USA
Distance from station: SW 192mi, 309km
Updated: Sun, 25-Feb-2024 8:53am CST
Clear
Clear
 Wind from SE
Wind: SE 10 mph , 17 km/h
Temperature: 63°F , 17°C
Dew Point: 39°F , 4°C
Humidity: 42%
Barometer: 30.20 inHg , 1022.7 hPa
Clouds: Clear
Visibility: 10 miles , 16 km
2024/02/25 14:53 KGPT 251453Z 14009KT 10SM CLR 17/04 A3020 RMK AO2 SLP226 T01670044 51010
KNEW - New Orleans/Lake, Louisiana, USA
Distance from station: SW 255mi, 410km
Updated: Sun, 25-Feb-2024 8:53am CST
Clear
Clear
 Wind from SE
Wind: SE 13 mph , 20 km/h
Temperature: 64°F , 18°C
Dew Point: 46°F , 8°C
Humidity: 52%
Barometer: 30.20 inHg , 1022.7 hPa
Clouds: Clear
Visibility: 10 miles , 16 km
2024/02/25 14:53 KNEW 251453Z AUTO 14011KT 10SM CLR 18/08 A3020 RMK AO2 SLP221 T01830078 53010
KP92 - Salt Point, Louisiana, USA
Distance from station: SW 347mi, 559km
Updated: Sun, 25-Feb-2024 8:59am CST

 Wind from SE
Wind: SE 6 mph , 9 km/h
Temperature: 61°F , 16°C
Dew Point: 57°F , 14°C
Humidity: 88%
Barometer: 30.18 inHg , 1022 hPa
2024/02/25 14:59 KP92 251459Z AUTO 14005KT 16/14 A3018 RMK AO1 SLP221 T01610139 53012